• pl
  • eng

Awiacja
METAR messages from military airports. 05:01 20.10.2017

METAR EPBC 200230Z NIL=

METAR EPCE 200230Z 12005KT 9999 OVC010 10/09
Q1017 RMK 103 094 8/8 =

METAR EPDA 200230Z 10009KT 9999 BKN016 10/09
Q1016 RMK 097 095 7/7 =

METAR EPDE 200230Z 13002KT 3000 BR BKN032 10/09 Q1018 RMK 095 095
7/7=

METAR EPIR 200230Z NIL=

METAR EPKS 200230Z 13006KT 0500 FG OVC001 11/10 Q1016 RMK 107 097
8/8=

METAR EPLK 200230Z NIL=

METAR EPLY 200230Z 15002KT 0800 FG OVC002 12/11 Q1017 RMK 116 097
8/8=

METAR EPMB 200230Z 09004KT 9999 BKN060 09/09 Q1018 RMK 091 096 5/5=

METAR EPMI 200230Z NIL=

METAR EPMM 200230Z 09004KT 8000 BKN025 12/10 Q1018 RMK 118 089 7/7=

METAR EPNA 200230Z NIL=

METAR EPOK 200230Z 13006KT 9999 OVC010 11/10
Q1018 RMK 113 092 8/8 =

METAR EPPR 200230Z 00000KT 0400 FG BKN061 08/07 Q1018 RMK 077 096
6/6=

METAR EPPW 200230Z 13004KT 0300 FG VV001 11/11 Q1016 RMK 110 099 ///
=

METAR EPSN 200230Z NIL=

METAR EPTM 200230Z NIL=
Awiacja.imgw.pl jest pogodowym serwisem informacyjnym
Instytutu Meteorologii i Gospodarki Wodnej Państwowego Instytutu Badawczego.
Copyright IMGW PIB 2009-2011© Wszelkie prawa zastrzeżone.